Historyczne dane pomiarowe

Dodano dane terminowe – wersja testowa.

Dane z okresu 1951-2018

Wersja bazy: 1.27 [2018-11-28, lista zmian], aktualizacja planowana na 2018-12-07

Dane meteo z obszaru Polski uzyskane na podstawie danych udostępnionych przez Instytut Meteorologii i Gospodarki Wodnej – Państwowy Instytut Badawczy.

 

Wybierz Datę:    

       

TemperaturaWilgotnośćWiatrCiśnienieOpadyŚniegCzas trwania zjawisk
 Stacja t tx tn tng RH VA  wxwx mslp ppp RRR   cm mm wxwxwxwxwxwxwx
1979-11-08 5.1 12.1 1.9 -2.9 71.5- 3.3 7.3---- 0.3------------
1979-11-09 6.7 13.1 2.3 -1.9 73.5- 4.7 3.7---- 0.0------------
1979-11-10 3.8 7.6 2.1 -0.9 83.3- 5.3 0.0---- 0.0------------
1979-11-11 2.3 3.6 1.5 -1.4 89.3- 8.0 1.0---- 0.0------------
1979-11-12 0.8 4.0 -0.6 -1.4 88.8- 2.7 0.0---- 0.0------------
1979-11-13 -0.2 5.0 -5.0 -7.9 81.8- 5.0 1.0---- 0.0------------
1979-11-14 3.7 9.1 0.0 -2.3 86.3- 7.7 1.3---- 0.0------------
1979-11-15 8.5 9.6 6.3 3.4 85.3- 8.0 0.7---- 1.7------------
1979-11-16 8.2 10.9 3.4 -1.4 82.3- 4.7 0.7---- 3.0------------
1979-11-17 1.8 4.5 -0.2 -3.1 98.0- 8.0 0.3---- 9.6------------
1979-11-18 3.6 4.6 2.9 2.0 98.0- 8.0 0.0---- 6.2------------
1979-11-19 3.8 7.1 2.1 2.8 97.8- 8.0 1.7---- 4.6------------
1979-11-20 2.9 4.0 2.1 2.5 98.0- 8.0 1.3---- 3.0------------
1979-11-21 3.3 4.4 2.3 2.9 98.0- 8.0 0.0---- 2.2------------
1979-11-22 2.6 3.5 1.5 1.8 98.0- 8.0 0.0---- 0.2------------
1979-11-23 2.2 3.0 1.6 1.5 90.5- 8.0 0.0---- 0.0------------
1979-11-24 1.2 3.0 0.3 -0.5 86.8- 6.7 0.0---- 0.2------------
1979-11-25 1.2 4.5 -0.6 -3.7 90.0- 5.3 0.0---- 0.0------------
1979-11-26 0.5 6.3 -4.3 -6.9 79.0- 6.7 0.0---- 0.0------------
1979-11-27 5.9 8.3 1.0 -1.4 75.3- 5.0 1.7---- 0.0------------
1979-11-28 3.1 5.9 1.0 -0.1 87.3- 8.0 0.7---- 3.1------------
1979-11-29 7.8 9.6 2.7 2.6 91.5- 8.0 1.0---- 1.0------------
1979-11-30 9.8 12.6 5.8 1.5 63.5- 5.0 0.7---- 0.1------------
1979-12-01 9.7 12.1 7.4 3.9 74.5- 8.0 3.7---- 5.1------------
1979-12-02 6.9 10.3 3.4 -0.9 86.3- 3.3 1.0---- 0.0------------
1979-12-03 5.7 14.6 0.0 -1.9 82.5- 0.0 0.0---- 0.0------------
1979-12-04 7.2 12.1 2.9 -1.4 76.5- 1.7 1.3---- 0.0------------
1979-12-05 8.1 14.7 0.0 -3.7 63.0- 5.3 1.0---- 1.2------------
1979-12-06 7.3 14.6 2.9 -1.4 71.5- 2.0 0.7---- 0.0------------
1979-12-07 7.1 14.6 0.6 -3.4 81.0- 5.3 2.3---- 0.2------------
3251.6 ms

 

Źródłem pochodzenia danych jest Instytut Meteorologii i Gospodarki Wodnej – Państwowy Instytut Badawczy. Dane Instytutu Meteorologii i Gospodarki Wodnej – Państwowego Instytutu Badawczego zostały przetworzone.

Dane źródłowe można odnaleźć na stronie https://dane.imgw.pl